Time;durP1;ratioP1;P1;durP2;ratioP2;P2;SDS_P1;SDS_P2;PMS_P1;PMS_P2;Temp;Humidity;BMP_temperature;BMP_pressure;BME280_temperature;BME280_humidity;BME280_pressure;Samples;Min_cycle;Max_cycle;Signal;HPM_P1;HPM_P2
2022/02/03 00:01:16;;;;;;;31.67;20.55;;;103.10;2227.20;;;;;;4937588;29;20027;-82
2022/02/03 00:03:55;;;;;;;22.83;14.00;;;103.10;2227.20;;;;;;4937708;29;20116;-84
2022/02/03 00:06:34;;;;;;;22.92;13.85;;;103.20;2227.20;;;;;;4937293;29;20032;-82
2022/02/03 00:30:22;;;;;;;14.27;9.38;;;103.30;2227.20;;;;;;4939495;29;20009;-84
2022/02/03 00:33:16;;;;;;;15.45;11.13;;;103.30;2227.20;;;;;;4922409;29;20039;-85
2022/02/03 00:49:07;;;;;;;17.75;10.43;;;103.30;2227.20;;;;;;4938894;29;20083;-85
2022/02/03 00:51:35;;;;;;;12.20;8.77;;;128.00;2252.80;;;;;;4921989;29;20054;-86
2022/02/03 00:54:01;;;;;;;13.13;8.27;;;128.00;2252.80;;;;;;4921818;29;20028;-86
2022/02/03 00:56:39;;;;;;;18.77;12.57;;;128.00;2252.80;;;;;;4921633;29;20035;-83
2022/02/03 00:59:10;;;;;;;19.55;12.35;;;128.10;2252.80;;;;;;4938984;29;20028;-85
2022/02/03 01:02:11;;;;;;;18.60;12.32;;;128.10;2252.80;;;;;;4921561;29;20032;-85
2022/02/03 01:04:39;;;;;;;20.98;11.60;;;128.10;2252.80;;;;;;4908412;29;20063;-85
2022/02/03 01:07:11;;;;;;;21.20;11.90;;;128.10;2252.80;;;;;;4921589;29;20036;-84
2022/02/03 01:09:45;;;;;;;15.13;7.25;;;128.10;2252.80;;;;;;4921593;29;20027;-86
2022/02/03 01:12:21;;;;;;;16.67;11.02;;;128.10;2252.80;;;;;;4939044;29;20110;-86
2022/02/03 01:14:57;;;;;;;11.45;7.25;;;128.10;2252.80;;;;;;4938939;29;20028;-85
2022/02/03 01:17:39;;;;;;;14.93;10.32;;;128.10;2252.80;;;;;;4938257;29;20115;-83
2022/02/03 01:44:58;;;;;;;14.48;7.97;;;128.00;2252.80;;;;;;4938021;29;20082;-87
2022/02/03 01:52:32;;;;;;;15.57;9.80;;;103.30;2227.20;;;;;;4937715;29;20032;-87
2022/02/03 01:55:00;;;;;;;14.88;8.60;;;103.30;2227.20;;;;;;4920807;29;20024;-84
2022/02/03 01:57:40;;;;;;;17.92;10.80;;;103.30;2227.20;;;;;;4920528;29;20039;-85
2022/02/03 02:00:12;;;;;;;20.52;11.02;;;103.30;2227.20;;;;;;4920829;29;20055;-85
2022/02/03 02:03:03;;;;;;;13.45;7.63;;;103.30;2227.20;;;;;;4920763;29;20031;-84
2022/02/03 02:05:41;;;;;;;11.35;6.82;;;103.30;2227.20;;;;;;4919427;29;20028;-83
2022/02/03 02:08:33;;;;;;;17.30;10.65;;;103.30;2227.20;;;;;;4920621;29;20095;-86
2022/02/03 02:11:40;;;;;;;15.80;9.00;;;103.30;2227.20;;;;;;4903996;29;20039;-83
2022/02/03 02:39:48;;;;;;;15.35;9.13;;;103.30;2227.20;;;;;;4936856;29;20072;-84
2022/02/03 02:45:06;;;;;;;17.27;10.40;;;128.00;2252.80;;;;;;4936824;29;20054;-87
2022/02/03 02:48:09;;;;;;;15.48;9.38;;;103.30;2227.20;;;;;;4920294;29;20091;-83
2022/02/03 02:50:57;;;;;;;13.40;7.88;;;103.30;2227.20;;;;;;4919816;29;20031;-81
2022/02/03 02:53:56;;;;;;;14.93;7.75;;;103.30;2227.20;;;;;;4920088;29;20032;-82
2022/02/03 02:56:52;;;;;;;14.70;8.27;;;103.30;2227.20;;;;;;4920084;29;20027;-85
2022/02/03 03:32:40;;;;;;;16.67;11.07;;;103.30;2227.20;;;;;;4936475;29;20102;-85
2022/02/03 03:37:57;;;;;;;13.55;8.35;;;103.30;2227.20;;;;;;4936673;29;20054;-85
2022/02/03 03:40:24;;;;;;;14.15;10.82;;;103.20;2227.20;;;;;;4919470;29;20472;-83
2022/02/03 03:43:12;;;;;;;19.60;12.32;;;103.30;2227.20;;;;;;4921736;29;20034;-87
2022/02/03 03:45:46;;;;;;;21.95;12.43;;;103.20;2227.20;;;;;;4923227;29;20531;-84
2022/02/03 03:48:18;;;;;;;18.50;9.60;;;103.20;2227.20;;;;;;4922728;29;20035;-86
2022/02/03 03:50:52;;;;;;;14.30;9.40;;;103.20;2227.20;;;;;;4923182;29;20042;-85
2022/02/03 03:53:35;;;;;;;16.73;9.82;;;103.30;2227.20;;;;;;4922965;29;20262;-88
2022/02/03 03:56:18;;;;;;;15.98;9.15;;;103.20;2227.20;;;;;;4923006;29;20038;-88
2022/02/03 04:57:27;;;;;;;19.10;14.48;;;103.30;2227.20;;;;;;4938969;29;20038;-84
2022/02/03 05:00:49;;;;;;;12.85;9.18;;;128.00;2252.80;;;;;;4939071;29;20027;-83
2022/02/03 05:06:24;;;;;;;20.63;13.30;;;103.30;2227.20;;;;;;4938850;29;20122;-88
2022/02/03 05:09:48;;;;;;;23.58;14.77;;;128.00;2252.80;;;;;;4921774;29;20039;-86
2022/02/03 05:12:55;;;;;;;28.90;18.85;;;103.30;2227.20;;;;;;4938029;29;20040;-82
2022/02/03 05:15:48;;;;;;;59.95;36.42;;;103.30;2227.20;;;;;;4938710;29;20056;-84
2022/02/03 05:52:19;;;;;;;17.77;12.07;;;128.00;2252.80;;;;;;4937882;29;20030;-85
2022/02/03 06:09:00;;;;;;;30.50;19.33;;;128.00;2252.80;;;;;;4937208;29;20054;-87
2022/02/03 06:14:02;;;;;;;46.08;29.17;;;128.10;2252.80;;;;;;4937119;29;20050;-85
2022/02/03 06:29:57;;;;;;;57.53;40.65;;;128.00;2252.80;;;;;;4937229;29;20036;-81
2022/02/03 06:32:23;;;;;;;55.15;37.95;;;128.10;2252.80;;;;;;4920206;29;20038;-82
2022/02/03 06:34:49;;;;;;;41.97;29.63;;;128.10;2252.80;;;;;;4919983;29;20079;-82
2022/02/03 06:37:15;;;;;;;62.72;43.50;;;128.20;2252.80;;;;;;4920174;29;20084;-83
2022/02/03 06:39:41;;;;;;;63.53;36.42;;;128.10;2252.80;;;;;;4920084;29;20461;-81
2022/02/03 06:42:08;;;;;;;46.97;29.40;;;128.10;2252.80;;;;;;4920039;29;20118;-82
2022/02/03 06:44:49;;;;;;;45.45;29.40;;;128.10;2252.80;;;;;;4920222;29;20388;-84
2022/02/03 06:47:34;;;;;;;59.53;37.10;;;128.10;2252.80;;;;;;4937027;29;20220;-80
2022/02/03 06:52:48;;;;;;;62.40;38.25;;;128.10;2252.80;;;;;;4937110;29;20034;-82
2022/02/03 06:55:20;;;;;;;49.08;32.63;;;128.10;2252.80;;;;;;4919745;29;20032;-86
2022/02/03 07:00:22;;;;;;;51.95;25.13;;;128.10;2252.80;;;;;;4936899;29;20060;-85
2022/02/03 07:02:51;;;;;;;17.65;11.15;;;128.00;2252.80;;;;;;4919745;29;20063;-84
2022/02/03 07:05:17;;;;;;;25.67;14.55;;;128.00;2252.80;;;;;;4919765;29;20111;-86
2022/02/03 07:07:43;;;;;;;24.88;15.88;;;103.30;2227.20;;;;;;4919907;29;20142;-84
2022/02/03 07:10:10;;;;;;;25.65;15.93;;;103.30;2227.20;;;;;;4919718;29;20127;-85
2022/02/03 07:12:36;;;;;;;23.50;14.85;;;103.30;2227.20;;;;;;4919733;29;20476;-84
2022/02/03 07:15:04;;;;;;;19.52;12.00;;;128.00;2252.80;;;;;;4919841;29;20028;-82
2022/02/03 07:17:31;;;;;;;19.92;12.88;;;128.10;2252.80;;;;;;4921121;29;20182;-85
2022/02/03 07:20:03;;;;;;;64.97;42.22;;;103.30;2227.20;;;;;;4940676;29;20075;-86
2022/02/03 07:22:30;;;;;;;53.55;37.08;;;103.30;2227.20;;;;;;4923765;29;20448;-85
2022/02/03 07:24:56;;;;;;;24.75;17.48;;;128.00;2252.80;;;;;;4940212;29;20042;-82
2022/02/03 07:27:23;;;;;;;35.45;25.67;;;128.00;2252.80;;;;;;4923571;29;20040;-87
2022/02/03 07:29:50;;;;;;;48.45;30.58;;;128.00;2252.80;;;;;;4923514;29;20032;-85
2022/02/03 07:32:16;;;;;;;20.83;14.68;;;128.00;2252.80;;;;;;4922872;29;20494;-85
2022/02/03 07:34:42;;;;;;;21.63;13.93;;;128.00;2252.80;;;;;;4923398;29;20403;-82
2022/02/03 07:37:08;;;;;;;25.20;16.58;;;128.00;2252.80;;;;;;4923175;29;20028;-82
2022/02/03 07:39:35;;;;;;;31.10;19.40;;;128.10;2252.80;;;;;;4923299;29;20024;-84
2022/02/03 07:42:01;;;;;;;30.10;20.17;;;128.00;2252.80;;;;;;4923237;29;20059;-83
2022/02/03 07:44:27;;;;;;;33.72;21.92;;;128.10;2252.80;;;;;;4922985;29;20067;-80
2022/02/03 07:46:53;;;;;;;30.52;19.90;;;128.10;2252.80;;;;;;4923114;29;20043;-86
2022/02/03 07:49:19;;;;;;;35.45;22.00;;;128.10;2252.80;;;;;;4923286;29;20032;-80
2022/02/03 07:51:45;;;;;;;21.27;14.50;;;128.10;2252.80;;;;;;4922908;29;20032;-80
2022/02/03 07:54:11;;;;;;;33.90;22.85;;;128.10;2252.80;;;;;;4923143;29;20032;-83
2022/02/03 07:56:40;;;;;;;30.25;20.50;;;128.00;2252.80;;;;;;4923187;29;20115;-85
2022/02/03 07:59:06;;;;;;;35.03;24.42;;;128.10;2252.80;;;;;;4939882;29;20099;-83
2022/02/03 08:01:32;;;;;;;45.40;29.63;;;128.10;2252.80;;;;;;4923060;29;20465;-80
2022/02/03 08:04:01;;;;;;;55.30;33.50;;;128.10;2252.80;;;;;;4922864;29;20055;-79
2022/02/03 08:06:32;;;;;;;31.85;20.95;;;128.10;2252.80;;;;;;4922564;29;20028;-79
2022/02/03 08:09:12;;;;;;;20.35;15.23;;;128.10;2252.80;;;;;;4939874;29;20059;-79
2022/02/03 08:11:43;;;;;;;24.33;17.33;;;128.20;2252.80;;;;;;4922621;29;20031;-82
2022/02/03 08:14:19;;;;;;;31.70;22.38;;;128.20;2252.80;;;;;;4939290;29;20106;-83
2022/02/03 08:16:52;;;;;;;31.70;20.50;;;128.20;2252.80;;;;;;4922720;29;20059;-80
2022/02/03 08:19:27;;;;;;;36.58;25.90;;;128.20;2252.80;;;;;;4922214;29;20138;-80
2022/02/03 08:22:05;;;;;;;36.75;24.60;;;128.30;2252.80;;;;;;4934926;29;20110;-80
2022/02/03 08:24:43;;;;;;;18.05;14.43;;;128.30;2252.80;;;;;;4922817;29;20155;-82
2022/02/03 08:27:34;;;;;;;27.13;17.52;;;128.30;2252.80;;;;;;4922105;29;20115;-78
2022/02/03 08:32:27;;;;;;;20.05;14.93;;;128.20;2252.80;;;;;;4939248;29;20164;-80
2022/02/03 08:37:21;;;;;;;24.30;16.67;;;128.30;2252.80;;;;;;4939258;29;20039;-81
2022/02/03 08:39:52;;;;;;;33.83;21.73;;;128.30;2252.80;;;;;;4922294;29;20028;-81
2022/02/03 08:42:19;;;;;;;36.03;24.90;;;128.30;2252.80;;;;;;4922105;29;20488;-79
2022/02/03 08:44:45;;;;;;;63.70;42.85;;;128.30;2252.80;;;;;;4922179;29;20028;-83
2022/02/03 08:47:11;;;;;;;25.90;17.48;;;128.30;2252.80;;;;;;4921418;29;20035;-82
2022/02/03 08:49:41;;;;;;;23.30;15.35;;;128.30;2252.80;;;;;;4922210;29;20028;-82
2022/02/03 08:52:15;;;;;;;28.73;19.35;;;128.30;2252.80;;;;;;4922354;29;20027;-79
2022/02/03 08:54:48;;;;;;;31.45;19.98;;;128.30;2252.80;;;;;;4921743;29;20035;-81
2022/02/03 08:57:22;;;;;;;16.20;11.32;;;128.40;2252.80;;;;;;4922001;29;20045;-79
2022/02/03 09:59:20;;;;;;;39.30;28.85;;;153.60;2252.80;;;;;;4937743;29;20042;-83
2022/02/03 10:01:53;;;;;;;10.35;7.60;;;153.60;2252.80;;;;;;4920642;29;20039;-80
2022/02/03 10:04:43;;;;;;;15.57;10.35;;;153.70;2252.80;;;;;;4937188;29;20137;-85
2022/02/03 10:07:16;;;;;;;13.38;9.73;;;153.70;2252.80;;;;;;4920794;29;20031;-79
2022/02/03 10:09:43;;;;;;;20.55;11.70;;;153.60;2252.80;;;;;;4920611;29;20035;-78
2022/02/03 10:12:10;;;;;;;15.52;10.63;;;153.70;2252.80;;;;;;4928064;29;20082;-78
2022/02/03 10:14:39;;;;;;;18.85;14.02;;;154.00;2252.80;;;;;;4936426;29;20035;-83
2022/02/03 10:17:06;;;;;;;15.23;10.43;;;154.30;2252.80;;;;;;4939224;29;20069;-83
2022/02/03 10:19:37;;;;;;;23.02;14.77;;;154.40;2252.80;;;;;;4955922;29;20399;-80
2022/02/03 10:22:12;;;;;;;15.48;12.27;;;179.30;2252.80;;;;;;4956384;29;20031;-75
2022/02/03 10:24:39;;;;;;;23.48;20.70;;;179.40;2252.80;;;;;;4956568;29;20027;-77
2022/02/03 10:27:21;;;;;;;28.08;21.10;;;179.20;2252.80;;;;;;4938784;29;20038;-81
2022/02/03 10:29:48;;;;;;;31.27;22.53;;;154.50;2252.80;;;;;;4938992;29;20031;-75
2022/02/03 10:32:14;;;;;;;29.05;24.30;;;154.50;2252.80;;;;;;4939341;29;20269;-79
2022/02/03 10:34:42;;;;;;;30.45;23.63;;;154.50;2252.80;;;;;;4945277;29;20079;-80
2022/02/03 10:37:24;;;;;;;17.48;13.30;;;179.20;2252.80;;;;;;4946399;29;20035;-77
2022/02/03 10:40:22;;;;;;;18.80;14.45;;;179.30;2252.80;;;;;;4962098;29;20035;-76
2022/02/03 10:50:51;;;;;;;32.55;22.35;;;179.40;2252.80;;;;;;4955721;29;20090;-80
2022/02/03 10:56:19;;;;;;;33.17;23.63;;;179.30;2252.80;;;;;;4955956;29;20034;-82
2022/02/03 11:01:36;;;;;;;49.13;31.13;;;154.30;2252.80;;;;;;4953833;29;19930;-82
2022/02/03 11:07:07;;;;;;;64.70;39.97;;;154.10;2252.80;;;;;;4955364;29;20122;-83
2022/02/03 11:09:50;;;;;;;48.30;28.60;;;154.00;2252.80;;;;;;4954230;28;20044;-83
2022/02/03 11:12:21;;;;;;;32.92;21.17;;;153.90;2252.80;;;;;;4938069;29;20039;-84
2022/02/03 11:14:52;;;;;;;38.38;24.65;;;153.80;2252.80;;;;;;4936685;29;20027;-85
2022/02/03 11:17:19;;;;;;;35.85;26.27;;;153.80;2252.80;;;;;;4937061;29;20039;-80
2022/02/03 11:19:51;;;;;;;28.73;18.77;;;153.80;2252.80;;;;;;4936690;29;20055;-83
2022/02/03 11:22:27;;;;;;;29.45;20.33;;;153.80;2252.80;;;;;;4954743;29;20027;-83
2022/02/03 11:25:38;;;;;;;33.30;23.40;;;153.80;2252.80;;;;;;4937550;29;20040;-83
2022/02/03 11:28:16;;;;;;;31.47;21.47;;;153.80;2252.80;;;;;;4951598;29;20461;-82
2022/02/03 11:58:57;;;;;;;40.55;25.90;;;128.90;2252.80;;;;;;4954474;29;20027;-82
2022/02/03 12:02:06;;;;;;;31.40;22.05;;;128.90;2252.80;;;;;;4953255;29;20027;-85
2022/02/03 12:21:01;;;;;;;53.20;27.83;;;128.50;2252.80;;;;;;4958315;29;20142;-86
2022/02/03 12:23:37;;;;;;;28.05;19.00;;;128.50;2252.80;;;;;;4958198;29;20404;-81
2022/02/03 12:26:11;;;;;;;55.90;29.38;;;128.50;2252.80;;;;;;4940963;29;20027;-82
2022/02/03 12:28:50;;;;;;;74.72;39.70;;;128.50;2252.80;;;;;;4941435;29;20130;-83
2022/02/03 12:42:00;;;;;;;57.72;31.55;;;128.40;2252.80;;;;;;4958459;29;20035;-82
2022/02/03 12:44:27;;;;;;;53.17;27.75;;;128.40;2252.80;;;;;;4941235;29;20066;-81
2022/02/03 12:46:54;;;;;;;90.03;45.75;;;128.40;2252.80;;;;;;4940989;29;20049;-80
2022/02/03 12:49:21;;;;;;;77.40;43.53;;;128.40;2252.80;;;;;;4941132;29;20031;-85
2022/02/03 12:51:50;;;;;;;55.42;30.38;;;128.30;2252.80;;;;;;4957628;29;20050;-83
2022/02/03 12:54:16;;;;;;;48.63;30.67;;;128.40;2252.80;;;;;;4939824;29;20039;-84
2022/02/03 12:56:42;;;;;;;58.97;33.55;;;128.40;2252.80;;;;;;4939441;29;20058;-82
2022/02/03 12:59:14;;;;;;;38.20;24.90;;;128.40;2252.80;;;;;;4939277;29;20024;-84
2022/02/03 13:01:41;;;;;;;34.25;26.85;;;128.40;2252.80;;;;;;4940030;29;20033;-83
2022/02/03 13:04:14;;;;;;;29.65;19.85;;;128.40;2252.80;;;;;;4939846;29;20050;-84
2022/02/03 13:06:44;;;;;;;;;;;128.50;2252.80;;;;;;4958096;29;20023;-85
2022/02/03 13:09:11;;;;;;;36.53;22.52;;;128.20;2252.80;;;;;;4940422;29;20013;-82
2022/02/03 13:14:41;;;;;;;25.83;18.30;;;128.20;2252.80;;;;;;4937876;28;20122;-82
2022/02/03 13:17:15;;;;;;;27.80;16.83;;;128.30;2252.80;;;;;;4956539;29;20376;-83
2022/02/03 13:25:01;;;;;;;23.45;16.08;;;128.10;2252.80;;;;;;4957082;29;20527;-85
2022/02/03 13:27:48;;;;;;;27.10;16.02;;;128.00;2252.80;;;;;;4956571;29;20027;-80
2022/02/03 13:30:48;;;;;;;29.08;18.10;;;128.00;2252.80;;;;;;4940018;29;20035;-81
2022/02/03 13:33:19;;;;;;;33.42;22.75;;;128.00;2252.80;;;;;;4956679;29;20368;-81
2022/02/03 13:35:56;;;;;;;39.08;26.55;;;128.10;2252.80;;;;;;4940107;29;20468;-82
2022/02/03 13:38:54;;;;;;;33.00;22.05;;;128.20;2252.80;;;;;;4940432;29;20027;-84
2022/02/03 13:41:25;;;;;;;27.17;17.63;;;128.20;2252.80;;;;;;4939794;29;20030;-83
2022/02/03 13:43:52;;;;;;;34.08;23.52;;;128.20;2252.80;;;;;;4940036;29;20074;-84
2022/02/03 13:46:30;;;;;;;36.30;26.40;;;128.20;2252.80;;;;;;4940019;29;20106;-84
2022/02/03 13:48:57;;;;;;;24.95;16.38;;;128.20;2252.80;;;;;;4939752;29;20451;-83
2022/02/03 13:51:34;;;;;;;24.00;13.98;;;128.20;2252.80;;;;;;4939840;29;20090;-83
2022/02/03 13:54:20;;;;;;;27.95;18.52;;;128.20;2252.80;;;;;;4940093;29;20032;-79
2022/02/03 14:21:19;;;;;;;50.10;27.02;;;128.60;2252.80;;;;;;4956261;29;20090;-81
2022/02/03 14:28:57;;;;;;;18.67;12.07;;;128.70;2252.80;;;;;;4956013;29;20475;-81
2022/02/03 14:31:23;;;;;;;25.02;14.77;;;128.60;2252.80;;;;;;4938718;29;20058;-82
2022/02/03 14:33:49;;;;;;;34.40;20.13;;;128.80;2252.80;;;;;;4956208;29;20062;-81
2022/02/03 14:36:19;;;;;;;18.75;12.55;;;128.80;2252.80;;;;;;4938954;29;20032;-81
2022/02/03 14:39:01;;;;;;;25.67;15.88;;;128.70;2252.80;;;;;;4938721;29;20038;-83
2022/02/03 14:41:35;;;;;;;63.50;42.25;;;128.70;2252.80;;;;;;4956296;29;20031;-82
2022/02/03 14:44:02;;;;;;;42.53;29.08;;;128.70;2252.80;;;;;;4955929;29;20098;-83
2022/02/03 14:46:28;;;;;;;44.13;32.15;;;153.60;2252.80;;;;;;4923043;29;20032;-84
2022/02/03 14:48:55;;;;;;;49.25;31.20;;;128.70;2252.80;;;;;;4920047;29;20035;-83
2022/02/03 14:51:26;;;;;;;37.28;24.05;;;128.70;2252.80;;;;;;4919563;29;20070;-83
2022/02/03 14:54:09;;;;;;;29.27;19.40;;;128.70;2252.80;;;;;;4919803;29;20031;-80
2022/02/03 14:59:22;;;;;;;18.88;13.18;;;128.80;2252.80;;;;;;4936637;29;20043;-82
2022/02/03 15:01:47;;;;;;;27.35;17.13;;;128.70;2252.80;;;;;;4919844;29;20023;-84
2022/02/03 15:04:21;;;;;;;29.73;15.30;;;128.70;2252.80;;;;;;4919975;29;20042;-86
2022/02/03 15:06:59;;;;;;;28.85;15.45;;;128.70;2252.80;;;;;;4919784;29;20023;-88
2022/02/03 15:09:50;;;;;;;45.13;24.48;;;128.70;2252.80;;;;;;4920377;29;20063;-85
2022/02/03 15:14:48;;;;;;;34.08;19.05;;;128.70;2252.80;;;;;;4936823;29;20079;-83
2022/02/03 15:17:13;;;;;;;43.15;29.88;;;128.70;2252.80;;;;;;4919905;29;20031;-80
2022/02/03 15:19:39;;;;;;;37.78;25.60;;;128.60;2252.80;;;;;;5209672;23;20062;-83
2022/02/03 15:22:05;;;;;;;35.75;23.40;;;128.70;2252.80;;;;;;4938976;29;20162;-84
2022/02/03 15:24:31;;;;;;;41.40;25.67;;;128.80;2252.80;;;;;;4939172;29;20054;-84
2022/02/03 15:26:59;;;;;;;43.85;29.33;;;128.70;2252.80;;;;;;4938806;29;20023;-87
2022/02/03 15:29:27;;;;;;;38.00;28.73;;;128.70;2252.80;;;;;;4939019;29;20031;-85
2022/02/03 15:31:53;;;;;;;43.97;32.10;;;128.80;2252.80;;;;;;4938922;29;20063;-84
2022/02/03 15:34:21;;;;;;;45.58;31.13;;;128.90;2252.80;;;;;;4938746;29;20027;-86
2022/02/03 15:36:52;;;;;;;42.10;28.95;;;128.70;2252.80;;;;;;4938889;29;20521;-86
2022/02/03 15:39:30;;;;;;;50.22;37.33;;;128.80;2252.80;;;;;;4958771;28;20415;-87
2022/02/03 15:41:56;;;;;;;74.68;48.55;;;128.80;2252.80;;;;;;4942680;29;20078;-87
2022/02/03 15:44:24;;;;;;;264.83;116.07;;;128.80;2252.80;;;;;;4942316;29;20466;-86
2022/02/03 15:47:04;;;;;;;214.77;92.43;;;128.80;2252.80;;;;;;4942337;29;20031;-85
2022/02/03 15:49:59;;;;;;;389.58;165.23;;;128.90;2252.80;;;;;;4942497;29;20380;-86
2022/02/03 16:19:17;;;;;;;84.45;50.22;;;128.40;2252.80;;;;;;4958854;29;20038;-79
2022/02/03 16:21:51;;;;;;;85.15;53.75;;;128.20;2252.80;;;;;;4941055;29;20055;-75
2022/02/03 16:40:45;;;;;;;145.75;62.45;;;128.10;2252.80;;;;;;4958504;29;20439;-77
2022/02/03 16:41:03;;;;;;;54.67;36.08;;;103.30;2227.20;;;;;;4958076;29;20046;-78
2022/02/03 16:52:03;;;;;;;119.95;63.50;;;103.10;2227.20;;;;;;4957678;29;20442;-78
2022/02/03 16:54:29;;;;;;;132.55;70.65;;;103.10;2227.20;;;;;;4940856;29;20059;-87
2022/02/03 16:57:00;;;;;;;126.60;70.97;;;103.20;2227.20;;;;;;4941158;29;20023;-83
2022/02/03 16:59:29;;;;;;;95.68;49.60;;;103.20;2227.20;;;;;;4941368;29;20478;-85
2022/02/03 17:01:54;;;;;;;84.65;43.20;;;103.20;2227.20;;;;;;4941220;29;20114;-87
2022/02/03 17:04:20;;;;;;;81.30;42.53;;;103.20;2227.20;;;;;;4940747;29;20058;-83
2022/02/03 17:06:47;;;;;;;111.10;56.00;;;103.30;2227.20;;;;;;4940833;29;20079;-85
2022/02/03 17:09:14;;;;;;;95.65;46.40;;;103.20;2227.20;;;;;;4941624;29;20031;-84
2022/02/03 17:11:40;;;;;;;104.88;60.40;;;103.20;2227.20;;;;;;4940947;29;20034;-88
2022/02/03 17:14:06;;;;;;;136.30;69.32;;;103.10;2227.20;;;;;;4940978;29;20027;-81
2022/02/03 17:16:33;;;;;;;147.18;79.22;;;103.00;2227.20;;;;;;4940904;29;20050;-86
2022/02/03 17:18:59;;;;;;;142.77;79.90;;;103.00;2227.20;;;;;;4940628;29;20129;-82
2022/02/03 17:21:28;;;;;;;214.50;120.40;;;103.00;2227.20;;;;;;4940513;29;20055;-84
2022/02/03 17:23:54;;;;;;;305.83;157.98;;;103.00;2227.20;;;;;;4940843;29;20522;-84
2022/02/03 17:26:28;;;;;;;256.70;142.73;;;103.00;2227.20;;;;;;4940325;29;20111;-82
2022/02/03 17:29:06;;;;;;;207.77;112.53;;;103.20;2227.20;;;;;;4940853;29;20053;-81
2022/02/03 18:05:34;;;;;;;133.98;58.22;;;103.20;2227.20;;;;;;4961347;29;20114;-87
2022/02/03 18:10:25;;;;;;;130.48;69.47;;;103.20;2227.20;;;;;;4957271;29;20118;-82
2022/02/03 18:37:37;;;;;;;37.65;24.02;;;103.00;2227.20;;;;;;4956391;29;20045;-84
2022/02/03 18:50:50;;;;;;;34.38;21.05;;;102.60;2227.20;;;;;;4955921;29;20032;-82
2022/02/03 18:53:32;;;;;;;44.97;23.63;;;102.60;2227.20;;;;;;4938961;29;20027;-84
2022/02/03 18:58:38;;;;;;;92.13;49.53;;;102.80;2227.20;;;;;;4956321;29;20050;-82
2022/02/03 20:08:26;;;;;;;273.55;158.98;;;52.00;2227.20;;;;;;4955465;29;20039;-87
2022/02/03 20:10:53;;;;;;;265.13;157.18;;;52.10;2227.20;;;;;;4938675;29;20048;-84
2022/02/03 20:13:18;;;;;;;271.60;159.68;;;52.10;2227.20;;;;;;4938497;29;20051;-85
2022/02/03 20:15:46;;;;;;;248.52;150.90;;;52.10;2227.20;;;;;;4938497;29;20126;-86
2022/02/03 20:18:12;;;;;;;335.23;182.32;;;52.10;2227.20;;;;;;4938605;29;20070;-85
2022/02/03 20:20:42;;;;;;;304.27;183.80;;;51.90;2227.20;;;;;;4937876;29;20082;-85
2022/02/03 20:23:14;;;;;;;228.88;136.32;;;52.00;2227.20;;;;;;4938540;29;20071;-87
2022/02/03 20:25:42;;;;;;;248.55;152.95;;;52.00;2227.20;;;;;;4941419;29;20062;-84
2022/02/03 20:28:09;;;;;;;289.77;181.32;;;51.90;2227.20;;;;;;4941296;29;20130;-85
2022/02/03 20:30:35;;;;;;;300.85;193.05;;;51.90;2227.20;;;;;;4941894;29;20126;-85
2022/02/03 20:33:01;;;;;;;260.20;158.82;;;51.80;2227.20;;;;;;4941684;29;20027;-86
2022/02/03 20:35:27;;;;;;;420.27;209.18;;;51.70;2227.20;;;;;;4941365;29;20032;-84
2022/02/03 20:37:53;;;;;;;368.13;195.30;;;51.80;2227.20;;;;;;4941531;29;20117;-85
2022/02/03 20:40:20;;;;;;;676.05;360.02;;;51.70;2227.20;;;;;;4941421;29;20023;-86
2022/02/03 20:42:45;;;;;;;349.00;196.80;;;51.70;2227.20;;;;;;4958496;29;20031;-86
2022/02/03 20:45:12;;;;;;;450.23;243.15;;;51.70;2227.20;;;;;;4941520;29;20143;-85
2022/02/03 20:47:38;;;;;;;416.17;239.93;;;51.70;2227.20;;;;;;4941322;29;20039;-83
2022/02/03 20:50:08;;;;;;;341.90;199.48;;;51.60;2227.20;;;;;;4940789;29;20044;-83
2022/02/03 20:52:35;;;;;;;316.67;195.68;;;51.70;2227.20;;;;;;4941001;29;20062;-85
2022/02/03 20:55:01;;;;;;;246.65;146.82;;;51.80;2227.20;;;;;;4940960;29;20031;-85
2022/02/03 20:57:27;;;;;;;264.65;158.60;;;51.40;2227.20;;;;;;4958443;29;20037;-86
2022/02/03 21:02:31;;;;;;;339.40;205.50;;;51.60;2227.20;;;;;;4958034;29;20030;-85
2022/02/03 21:07:26;;;;;;;329.15;199.18;;;51.50;2227.20;;;;;;4957986;29;20094;-83
2022/02/03 21:09:51;;;;;;;236.15;140.35;;;51.50;2227.20;;;;;;4957939;29;20419;-88
2022/02/03 21:12:17;;;;;;;288.80;172.77;;;51.50;2227.20;;;;;;4940895;29;20534;-86
2022/02/03 21:14:43;;;;;;;290.13;169.85;;;51.30;2227.20;;;;;;4940941;29;20387;-87
2022/02/03 21:17:09;;;;;;;267.25;159.60;;;51.40;2227.20;;;;;;4940736;29;20062;-84
2022/02/03 21:19:35;;;;;;;213.02;133.52;;;51.40;2227.20;;;;;;4940634;29;20027;-84
2022/02/03 21:22:01;;;;;;;190.77;110.95;;;51.30;2227.20;;;;;;4940783;29;20035;-88
2022/02/03 21:24:27;;;;;;;244.32;140.32;;;51.30;2227.20;;;;;;4957832;29;20027;-85
2022/02/03 21:26:56;;;;;;;226.15;142.18;;;51.20;2227.20;;;;;;4940718;29;20471;-86
2022/02/03 21:29:22;;;;;;;214.18;128.90;;;51.20;2227.20;;;;;;4958059;29;20039;-84
2022/02/03 21:31:47;;;;;;;242.50;145.45;;;51.20;2227.20;;;;;;4957291;29;20034;-86
2022/02/03 21:34:19;;;;;;;325.98;185.10;;;26.40;2201.60;;;;;;4940652;29;20098;-86
2022/02/03 21:36:45;;;;;;;170.50;101.53;;;26.40;2201.60;;;;;;4940122;29;20027;-83
2022/02/03 21:39:10;;;;;;;291.88;153.20;;;51.20;2227.20;;;;;;4940091;29;20042;-82
2022/02/03 21:41:36;;;;;;;154.95;87.80;;;51.30;2227.20;;;;;;4957292;29;20531;-82
2022/02/03 21:44:04;;;;;;;117.65;73.13;;;26.50;2201.60;;;;;;4939951;29;20028;-81
2022/02/03 21:46:30;;;;;;;126.95;74.65;;;26.40;2201.60;;;;;;4939982;29;20031;-83
2022/02/03 21:48:55;;;;;;;175.60;102.85;;;26.50;2201.60;;;;;;4940062;29;20031;-86
2022/02/03 21:51:25;;;;;;;121.88;75.57;;;26.20;2201.60;;;;;;4940262;29;20031;-83
2022/02/03 21:53:53;;;;;;;138.05;80.15;;;26.30;2201.60;;;;;;4957148;29;20571;-85
2022/02/03 21:56:20;;;;;;;152.73;92.03;;;26.30;2201.60;;;;;;4940182;29;20027;-85
2022/02/03 21:58:46;;;;;;;147.13;91.85;;;26.40;2201.60;;;;;;4940019;29;20031;-85
2022/02/03 22:01:13;;;;;;;117.82;71.55;;;26.50;2201.60;;;;;;4957158;29;20027;-87
2022/02/03 22:03:39;;;;;;;138.55;86.10;;;26.30;2201.60;;;;;;4956824;29;20071;-86
2022/02/03 22:06:05;;;;;;;143.02;87.45;;;26.30;2201.60;;;;;;4939358;29;20078;-84
2022/02/03 22:08:30;;;;;;;165.13;98.68;;;26.40;2201.60;;;;;;4939830;29;20044;-84
2022/02/03 22:10:59;;;;;;;181.30;113.03;;;26.50;2201.60;;;;;;4940023;29;20039;-86
2022/02/03 22:13:33;;;;;;;235.70;144.98;;;26.50;2201.60;;;;;;4939693;29;20419;-85
2022/02/03 22:16:05;;;;;;;178.43;107.35;;;26.40;2201.60;;;;;;4939914;29;20034;-89
2022/02/03 22:18:31;;;;;;;242.43;137.85;;;26.20;2201.60;;;;;;4957063;29;20455;-89
2022/02/03 22:21:02;;;;;;;438.25;204.60;;;26.30;2201.60;;;;;;4939246;29;20047;-85
2022/02/03 22:23:45;;;;;;;336.75;169.00;;;26.30;2201.60;;;;;;4939827;29;20035;-85
2022/02/03 22:45:47;;;;;;;321.83;190.23;;;26.30;2201.60;;;;;;4956519;29;20098;-85
2022/02/03 22:48:24;;;;;;;295.58;172.18;;;26.40;2201.60;;;;;;4955157;28;20027;-85
2022/02/03 22:50:52;;;;;;;298.75;167.13;;;26.50;2201.60;;;;;;4939469;29;20037;-85
2022/02/03 22:53:18;;;;;;;278.52;159.52;;;26.50;2201.60;;;;;;4939490;29;20031;-86
2022/02/03 22:55:43;;;;;;;253.30;142.35;;;26.50;2201.60;;;;;;4939195;29;20030;-88
2022/02/03 23:00:58;;;;;;;224.98;131.35;;;26.40;2201.60;;;;;;4916972;29;20040;-87
2022/02/03 23:03:25;;;;;;;296.75;168.70;;;26.40;2201.60;;;;;;4939211;29;20031;-88
2022/02/03 23:05:51;;;;;;;293.38;164.77;;;26.40;2201.60;;;;;;4939353;29;20118;-86
2022/02/03 23:08:21;;;;;;;287.85;165.30;;;26.50;2201.60;;;;;;4938994;29;20117;-87
2022/02/03 23:11:06;;;;;;;315.98;177.65;;;26.40;2201.60;;;;;;4939530;29;20031;-87
2022/02/03 23:16:23;;;;;;;366.50;217.15;;;26.40;2201.60;;;;;;4956282;29;20031;-88
2022/02/03 23:18:57;;;;;;;306.03;183.70;;;26.30;2201.60;;;;;;4939389;29;20027;-89
2022/02/03 23:23:49;;;;;;;261.80;146.43;;;25.70;2201.60;;;;;;4955870;29;20031;-89
2022/02/03 23:26:18;;;;;;;294.00;160.90;;;25.80;2201.60;;;;;;4939199;29;20034;-88